Manitowaning, Canada
Current Conditions -  °F | °C
As of 8:00 PM on Sunday 23 Nov 2014 (Local Time) from CYZE Reporting Station
Light Rain Light Rain  
Wind Chill: 37°   Ceiling: 5500
Heat Index: 45°   Visibility: 4mi
Dew Point: 43°   Wind: 16mph
Humidity: 93%   Direction: 160°SSE
Pressure: 29.59"   Gusts: 24mph
Location:  45.73°N, 81.8°W
Report Text: CYZE 240100Z AUTO 16014G21KT 4SM -RA BR SCT005 BKN055 OVC074 07/06 A2959 RMK PCPN 0.8MM PAST HR SLP024
Loading
Personal Weather Stations






























Interactive Weather Map New forecast layout! Learn more

10-Day Weather Forecast

Advertisements
Track Severe Weather on mobile